Terminal Aerodrome Forecast
Issued by NWS Chicago, IL

Home | Current Version | Previous Version | Text Only | Print | Product List | Glossary Off
Versions: 1 2 3 4 5 6 7 8 9 10 11 12 13 14 15 16 17 18 19 20 21 22 23 24 25 26 27 28 29 30 31 32 33 34 35 36 37 38

000
FTUS43 KLOT 221900 AAA
TAFRFD
TAF AMD
KRFD 221949Z 2220/2318 19011KT 1 1/2SM -DZ BR OVC011
     FM230200 20012KT 2SM BR OVC009 WS020/21045KT
     FM230700 20013KT 1SM -RA BR OVC006
     FM231500 18014KT 2SM RA BR OVC005=

USA.gov is the U.S. government's official web portal to all federal, state and local government web resources and services.